sensor_id;sensor_type;location;lat;lon;timestamp;P1;durP1;ratioP1;P2;durP2;ratioP2
58643;SDS011;44411;49.994;8.660;2022-10-16T01:03:34;3.95;;;2.65;;
58643;SDS011;44411;49.994;8.660;2022-10-16T01:08:49;6.47;;;2.95;;
58643;SDS011;44411;49.994;8.660;2022-10-16T01:11:20;4.68;;;2.80;;
58643;SDS011;44411;49.994;8.660;2022-10-16T01:13:53;3.78;;;2.05;;
58643;SDS011;44411;49.994;8.660;2022-10-16T01:16:26;5.07;;;2.40;;
58643;SDS011;44411;49.994;8.660;2022-10-16T01:19:00;5.45;;;2.85;;
58643;SDS011;44411;49.994;8.660;2022-10-16T01:21:41;5.47;;;2.58;;
58643;SDS011;44411;49.994;8.660;2022-10-16T01:29:59;5.95;;;2.42;;
58643;SDS011;44411;49.994;8.660;2022-10-16T01:37:40;4.78;;;1.90;;
58643;SDS011;44411;49.994;8.660;2022-10-16T01:53:12;3.72;;;1.70;;
58643;SDS011;44411;49.994;8.660;2022-10-16T01:55:41;6.53;;;1.77;;
58643;SDS011;44411;49.994;8.660;2022-10-16T01:58:10;2.83;;;1.60;;
58643;SDS011;44411;49.994;8.660;2022-10-16T02:00:38;4.13;;;1.80;;
58643;SDS011;44411;49.994;8.660;2022-10-16T02:03:06;5.10;;;1.60;;
58643;SDS011;44411;49.994;8.660;2022-10-16T02:05:55;2.30;;;1.60;;
58643;SDS011;44411;49.994;8.660;2022-10-16T02:08:20;3.58;;;1.42;;
58643;SDS011;44411;49.994;8.660;2022-10-16T02:10:49;2.67;;;1.60;;
58643;SDS011;44411;49.994;8.660;2022-10-16T02:13:22;3.85;;;1.17;;
58643;SDS011;44411;49.994;8.660;2022-10-16T02:15:52;2.67;;;1.10;;
58643;SDS011;44411;49.994;8.660;2022-10-16T02:18:18;6.45;;;1.75;;
58643;SDS011;44411;49.994;8.660;2022-10-16T02:20:46;6.78;;;1.50;;
58643;SDS011;44411;49.994;8.660;2022-10-16T02:26:42;3.00;;;1.60;;
58643;SDS011;44411;49.994;8.660;2022-10-16T02:29:13;3.45;;;1.40;;
58643;SDS011;44411;49.994;8.660;2022-10-16T02:31:43;4.10;;;1.83;;
58643;SDS011;44411;49.994;8.660;2022-10-16T02:34:13;3.83;;;1.98;;
58643;SDS011;44411;49.994;8.660;2022-10-16T02:36:40;3.67;;;2.03;;
58643;SDS011;44411;49.994;8.660;2022-10-16T02:39:06;4.65;;;1.80;;
58643;SDS011;44411;49.994;8.660;2022-10-16T02:41:33;4.43;;;1.65;;
58643;SDS011;44411;49.994;8.660;2022-10-16T02:43:58;4.38;;;1.90;;
58643;SDS011;44411;49.994;8.660;2022-10-16T02:46:24;3.58;;;1.83;;
58643;SDS011;44411;49.994;8.660;2022-10-16T02:48:49;3.63;;;2.08;;
58643;SDS011;44411;49.994;8.660;2022-10-16T02:51:15;5.18;;;2.20;;
58643;SDS011;44411;49.994;8.660;2022-10-16T02:53:40;5.35;;;1.95;;
58643;SDS011;44411;49.994;8.660;2022-10-16T02:56:05;9.63;;;2.30;;
58643;SDS011;44411;49.994;8.660;2022-10-16T02:58:31;4.78;;;2.00;;
58643;SDS011;44411;49.994;8.660;2022-10-16T03:00:56;4.65;;;2.38;;
58643;SDS011;44411;49.994;8.660;2022-10-16T03:03:21;4.78;;;2.00;;
58643;SDS011;44411;49.994;8.660;2022-10-16T03:05:47;5.40;;;2.08;;
58643;SDS011;44411;49.994;8.660;2022-10-16T03:08:12;3.88;;;1.88;;
58643;SDS011;44411;49.994;8.660;2022-10-16T03:10:38;3.83;;;1.90;;
58643;SDS011;44411;49.994;8.660;2022-10-16T03:13:03;4.10;;;1.80;;
58643;SDS011;44411;49.994;8.660;2022-10-16T03:15:29;3.78;;;1.73;;
58643;SDS011;44411;49.994;8.660;2022-10-16T03:17:54;6.55;;;2.10;;
58643;SDS011;44411;49.994;8.660;2022-10-16T03:20:22;5.57;;;2.33;;
58643;SDS011;44411;49.994;8.660;2022-10-16T03:22:48;9.57;;;2.67;;
58643;SDS011;44411;49.994;8.660;2022-10-16T03:25:13;8.60;;;2.38;;
58643;SDS011;44411;49.994;8.660;2022-10-16T03:27:38;4.93;;;2.45;;
58643;SDS011;44411;49.994;8.660;2022-10-16T03:30:04;5.03;;;2.63;;
58643;SDS011;44411;49.994;8.660;2022-10-16T03:32:29;6.55;;;2.72;;
58643;SDS011;44411;49.994;8.660;2022-10-16T03:34:54;6.45;;;2.67;;
58643;SDS011;44411;49.994;8.660;2022-10-16T03:37:21;6.40;;;3.45;;
58643;SDS011;44411;49.994;8.660;2022-10-16T03:39:46;5.32;;;3.17;;
58643;SDS011;44411;49.994;8.660;2022-10-16T03:42:12;5.50;;;3.17;;
58643;SDS011;44411;49.994;8.660;2022-10-16T03:44:37;8.93;;;3.38;;
58643;SDS011;44411;49.994;8.660;2022-10-16T03:47:02;6.80;;;3.30;;
58643;SDS011;44411;49.994;8.660;2022-10-16T03:49:28;4.88;;;3.10;;
58643;SDS011;44411;49.994;8.660;2022-10-16T03:51:53;6.82;;;3.55;;
58643;SDS011;44411;49.994;8.660;2022-10-16T03:54:18;6.05;;;3.20;;
58643;SDS011;44411;49.994;8.660;2022-10-16T03:56:44;7.38;;;3.40;;
58643;SDS011;44411;49.994;8.660;2022-10-16T03:59:09;7.25;;;3.47;;
58643;SDS011;44411;49.994;8.660;2022-10-16T04:01:34;7.47;;;3.33;;
58643;SDS011;44411;49.994;8.660;2022-10-16T04:04:00;6.10;;;2.92;;
58643;SDS011;44411;49.994;8.660;2022-10-16T04:06:25;6.80;;;3.22;;
58643;SDS011;44411;49.994;8.660;2022-10-16T04:08:50;6.03;;;3.28;;
58643;SDS011;44411;49.994;8.660;2022-10-16T04:11:16;4.70;;;2.90;;
58643;SDS011;44411;49.994;8.660;2022-10-16T04:13:41;4.82;;;2.95;;
58643;SDS011;44411;49.994;8.660;2022-10-16T04:16:06;7.22;;;3.67;;
58643;SDS011;44411;49.994;8.660;2022-10-16T04:18:32;7.85;;;3.30;;
58643;SDS011;44411;49.994;8.660;2022-10-16T04:21:01;4.35;;;2.80;;
58643;SDS011;44411;49.994;8.660;2022-10-16T04:23:31;6.13;;;2.80;;
58643;SDS011;44411;49.994;8.660;2022-10-16T04:25:56;4.50;;;2.67;;
58643;SDS011;44411;49.994;8.660;2022-10-16T04:28:22;7.28;;;2.90;;
58643;SDS011;44411;49.994;8.660;2022-10-16T04:30:47;5.57;;;2.67;;
58643;SDS011;44411;49.994;8.660;2022-10-16T04:33:13;3.90;;;2.65;;
58643;SDS011;44411;49.994;8.660;2022-10-16T04:35:38;7.93;;;2.50;;
58643;SDS011;44411;49.994;8.660;2022-10-16T04:38:04;3.75;;;2.30;;
58643;SDS011;44411;49.994;8.660;2022-10-16T04:40:29;5.88;;;2.80;;
58643;SDS011;44411;49.994;8.660;2022-10-16T04:42:57;10.63;;;2.92;;
58643;SDS011;44411;49.994;8.660;2022-10-16T04:45:23;5.78;;;2.60;;
58643;SDS011;44411;49.994;8.660;2022-10-16T04:47:49;8.95;;;3.20;;
58643;SDS011;44411;49.994;8.660;2022-10-16T04:50:14;3.75;;;2.72;;
58643;SDS011;44411;49.994;8.660;2022-10-16T04:52:39;5.28;;;2.60;;
58643;SDS011;44411;49.994;8.660;2022-10-16T04:55:05;5.13;;;2.85;;
58643;SDS011;44411;49.994;8.660;2022-10-16T04:57:30;5.63;;;3.30;;
58643;SDS011;44411;49.994;8.660;2022-10-16T04:59:56;8.65;;;3.22;;
58643;SDS011;44411;49.994;8.660;2022-10-16T05:02:21;5.55;;;3.15;;
58643;SDS011;44411;49.994;8.660;2022-10-16T05:04:46;9.18;;;3.30;;
58643;SDS011;44411;49.994;8.660;2022-10-16T05:07:12;7.70;;;3.85;;
58643;SDS011;44411;49.994;8.660;2022-10-16T05:09:37;6.43;;;3.60;;
58643;SDS011;44411;49.994;8.660;2022-10-16T05:12:03;7.45;;;3.55;;
58643;SDS011;44411;49.994;8.660;2022-10-16T05:14:28;6.35;;;3.38;;
58643;SDS011;44411;49.994;8.660;2022-10-16T05:16:54;6.70;;;3.50;;
58643;SDS011;44411;49.994;8.660;2022-10-16T05:19:19;7.22;;;3.97;;
58643;SDS011;44411;49.994;8.660;2022-10-16T05:21:44;9.13;;;5.50;;
58643;SDS011;44411;49.994;8.660;2022-10-16T05:24:10;7.55;;;4.88;;
58643;SDS011;44411;49.994;8.660;2022-10-16T05:26:35;7.90;;;5.32;;
58643;SDS011;44411;49.994;8.660;2022-10-16T05:29:00;8.95;;;5.45;;
58643;SDS011;44411;49.994;8.660;2022-10-16T05:31:26;8.90;;;6.18;;
58643;SDS011;44411;49.994;8.660;2022-10-16T05:33:51;8.13;;;6.15;;
58643;SDS011;44411;49.994;8.660;2022-10-16T05:36:16;10.82;;;6.50;;
58643;SDS011;44411;49.994;8.660;2022-10-16T05:38:43;9.45;;;5.72;;
58643;SDS011;44411;49.994;8.660;2022-10-16T05:41:08;9.88;;;6.10;;
58643;SDS011;44411;49.994;8.660;2022-10-16T05:43:34;11.68;;;6.53;;
58643;SDS011;44411;49.994;8.660;2022-10-16T05:48:26;11.40;;;6.55;;
58643;SDS011;44411;49.994;8.660;2022-10-16T05:50:59;14.75;;;7.43;;
58643;SDS011;44411;49.994;8.660;2022-10-16T05:56:18;14.32;;;7.80;;
58643;SDS011;44411;49.994;8.660;2022-10-16T05:58:43;11.45;;;6.97;;
58643;SDS011;44411;49.994;8.660;2022-10-16T06:01:13;10.60;;;8.10;;
58643;SDS011;44411;49.994;8.660;2022-10-16T06:03:40;12.55;;;8.27;;
58643;SDS011;44411;49.994;8.660;2022-10-16T06:06:09;10.98;;;8.75;;
58643;SDS011;44411;49.994;8.660;2022-10-16T06:08:39;12.93;;;8.18;;
58643;SDS011;44411;49.994;8.660;2022-10-16T06:11:07;13.75;;;8.95;;
58643;SDS011;44411;49.994;8.660;2022-10-16T06:13:36;11.25;;;8.63;;
58643;SDS011;44411;49.994;8.660;2022-10-16T06:16:02;13.50;;;8.35;;
58643;SDS011;44411;49.994;8.660;2022-10-16T06:18:28;13.27;;;8.18;;
58643;SDS011;44411;49.994;8.660;2022-10-16T06:20:57;12.55;;;8.32;;
58643;SDS011;44411;49.994;8.660;2022-10-16T06:23:24;11.52;;;8.40;;
58643;SDS011;44411;49.994;8.660;2022-10-16T06:25:49;10.63;;;7.95;;
58643;SDS011;44411;49.994;8.660;2022-10-16T06:28:15;12.23;;;7.95;;
58643;SDS011;44411;49.994;8.660;2022-10-16T06:30:41;11.98;;;7.72;;
58643;SDS011;44411;49.994;8.660;2022-10-16T06:33:08;12.48;;;7.38;;
58643;SDS011;44411;49.994;8.660;2022-10-16T06:35:34;12.10;;;7.65;;
58643;SDS011;44411;49.994;8.660;2022-10-16T06:38:00;10.10;;;7.60;;
58643;SDS011;44411;49.994;8.660;2022-10-16T06:40:25;12.32;;;7.45;;
58643;SDS011;44411;49.994;8.660;2022-10-16T06:42:51;12.77;;;7.70;;
58643;SDS011;44411;49.994;8.660;2022-10-16T06:45:19;12.48;;;7.50;;
58643;SDS011;44411;49.994;8.660;2022-10-16T06:47:44;10.95;;;7.82;;
58643;SDS011;44411;49.994;8.660;2022-10-16T06:50:10;10.55;;;7.45;;
58643;SDS011;44411;49.994;8.660;2022-10-16T06:52:38;9.77;;;7.13;;
58643;SDS011;44411;49.994;8.660;2022-10-16T06:55:03;11.73;;;6.97;;
58643;SDS011;44411;49.994;8.660;2022-10-16T06:57:29;11.15;;;7.53;;
58643;SDS011;44411;49.994;8.660;2022-10-16T06:59:54;11.60;;;7.80;;
58643;SDS011;44411;49.994;8.660;2022-10-16T07:02:19;15.77;;;9.38;;
58643;SDS011;44411;49.994;8.660;2022-10-16T07:04:44;15.98;;;10.93;;
58643;SDS011;44411;49.994;8.660;2022-10-16T07:07:10;14.55;;;10.40;;
58643;SDS011;44411;49.994;8.660;2022-10-16T07:09:35;12.93;;;10.88;;
58643;SDS011;44411;49.994;8.660;2022-10-16T07:12:03;14.20;;;10.07;;
58643;SDS011;44411;49.994;8.660;2022-10-16T07:14:29;14.13;;;10.40;;
58643;SDS011;44411;49.994;8.660;2022-10-16T07:16:55;10.98;;;8.35;;
58643;SDS011;44411;49.994;8.660;2022-10-16T07:19:20;11.63;;;8.60;;
58643;SDS011;44411;49.994;8.660;2022-10-16T07:21:46;10.45;;;7.75;;
58643;SDS011;44411;49.994;8.660;2022-10-16T07:24:12;10.18;;;7.70;;
58643;SDS011;44411;49.994;8.660;2022-10-16T07:26:41;14.55;;;8.02;;
58643;SDS011;44411;49.994;8.660;2022-10-16T07:29:14;17.30;;;10.65;;
58643;SDS011;44411;49.994;8.660;2022-10-16T07:31:42;10.75;;;8.32;;
58643;SDS011;44411;49.994;8.660;2022-10-16T07:34:07;12.68;;;8.57;;
58643;SDS011;44411;49.994;8.660;2022-10-16T07:36:33;9.20;;;7.15;;
58643;SDS011;44411;49.994;8.660;2022-10-16T07:38:59;11.32;;;7.70;;
58643;SDS011;44411;49.994;8.660;2022-10-16T07:41:24;12.73;;;8.77;;
58643;SDS011;44411;49.994;8.660;2022-10-16T07:43:51;12.02;;;8.68;;
58643;SDS011;44411;49.994;8.660;2022-10-16T07:46:18;13.75;;;9.27;;
58643;SDS011;44411;49.994;8.660;2022-10-16T07:48:44;12.68;;;9.60;;
58643;SDS011;44411;49.994;8.660;2022-10-16T07:51:12;13.90;;;9.45;;
58643;SDS011;44411;49.994;8.660;2022-10-16T07:53:42;13.15;;;9.65;;
58643;SDS011;44411;49.994;8.660;2022-10-16T07:56:08;12.70;;;9.18;;
58643;SDS011;44411;49.994;8.660;2022-10-16T07:58:34;13.98;;;9.68;;
58643;SDS011;44411;49.994;8.660;2022-10-16T08:01:11;13.02;;;9.40;;
58643;SDS011;44411;49.994;8.660;2022-10-16T08:03:40;12.13;;;9.38;;
58643;SDS011;44411;49.994;8.660;2022-10-16T08:06:07;13.35;;;8.88;;
58643;SDS011;44411;49.994;8.660;2022-10-16T08:08:32;15.52;;;11.02;;
58643;SDS011;44411;49.994;8.660;2022-10-16T08:10:58;20.33;;;9.95;;
58643;SDS011;44411;49.994;8.660;2022-10-16T08:13:23;16.15;;;9.70;;
58643;SDS011;44411;49.994;8.660;2022-10-16T08:15:48;11.80;;;9.82;;
58643;SDS011;44411;49.994;8.660;2022-10-16T08:18:14;16.10;;;11.77;;
58643;SDS011;44411;49.994;8.660;2022-10-16T08:20:40;16.42;;;11.50;;
58643;SDS011;44411;49.994;8.660;2022-10-16T08:23:07;18.20;;;10.93;;
58643;SDS011;44411;49.994;8.660;2022-10-16T08:25:35;19.23;;;11.32;;
58643;SDS011;44411;49.994;8.660;2022-10-16T08:28:04;16.33;;;10.60;;
58643;SDS011;44411;49.994;8.660;2022-10-16T08:30:34;14.52;;;9.98;;
58643;SDS011;44411;49.994;8.660;2022-10-16T08:33:00;12.80;;;9.68;;
58643;SDS011;44411;49.994;8.660;2022-10-16T08:35:26;12.40;;;9.23;;
58643;SDS011;44411;49.994;8.660;2022-10-16T08:37:51;16.70;;;10.73;;
58643;SDS011;44411;49.994;8.660;2022-10-16T08:40:21;15.15;;;11.75;;
58643;SDS011;44411;49.994;8.660;2022-10-16T08:48:43;19.05;;;9.73;;
58643;SDS011;44411;49.994;8.660;2022-10-16T08:51:22;15.05;;;9.73;;
58643;SDS011;44411;49.994;8.660;2022-10-16T08:53:51;17.23;;;11.55;;
58643;SDS011;44411;49.994;8.660;2022-10-16T08:56:20;18.35;;;12.20;;
58643;SDS011;44411;49.994;8.660;2022-10-16T08:58:46;15.93;;;10.65;;
58643;SDS011;44411;49.994;8.660;2022-10-16T09:01:14;16.15;;;11.02;;
58643;SDS011;44411;49.994;8.660;2022-10-16T09:12:18;13.02;;;10.15;;
58643;SDS011;44411;49.994;8.660;2022-10-16T09:22:40;15.55;;;9.95;;
58643;SDS011;44411;49.994;8.660;2022-10-16T09:25:13;14.52;;;9.80;;
58643;SDS011;44411;49.994;8.660;2022-10-16T09:27:42;14.75;;;10.43;;
58643;SDS011;44411;49.994;8.660;2022-10-16T09:30:14;13.35;;;9.45;;
58643;SDS011;44411;49.994;8.660;2022-10-16T09:32:44;14.30;;;10.52;;
58643;SDS011;44411;49.994;8.660;2022-10-16T09:35:14;15.27;;;10.13;;
58643;SDS011;44411;49.994;8.660;2022-10-16T09:37:43;16.08;;;10.18;;
58643;SDS011;44411;49.994;8.660;2022-10-16T09:40:23;12.98;;;10.10;;
58643;SDS011;44411;49.994;8.660;2022-10-16T09:42:52;14.32;;;10.63;;
58643;SDS011;44411;49.994;8.660;2022-10-16T09:45:23;13.95;;;10.95;;
58643;SDS011;44411;49.994;8.660;2022-10-16T09:47:48;15.45;;;12.48;;
58643;SDS011;44411;49.994;8.660;2022-10-16T09:53:03;15.93;;;11.60;;
58643;SDS011;44411;49.994;8.660;2022-10-16T09:55:29;12.93;;;10.98;;
58643;SDS011;44411;49.994;8.660;2022-10-16T09:57:55;12.68;;;9.60;;
58643;SDS011;44411;49.994;8.660;2022-10-16T10:00:21;12.38;;;8.77;;
58643;SDS011;44411;49.994;8.660;2022-10-16T10:02:47;14.98;;;10.07;;
58643;SDS011;44411;49.994;8.660;2022-10-16T10:05:20;12.93;;;10.68;;
58643;SDS011;44411;49.994;8.660;2022-10-16T10:07:55;9.98;;;8.13;;
58643;SDS011;44411;49.994;8.660;2022-10-16T10:10:24;12.23;;;8.90;;
58643;SDS011;44411;49.994;8.660;2022-10-16T10:12:51;13.18;;;9.90;;
58643;SDS011;44411;49.994;8.660;2022-10-16T10:15:17;12.00;;;9.43;;
58643;SDS011;44411;49.994;8.660;2022-10-16T10:22:55;12.48;;;11.18;;
58643;SDS011;44411;49.994;8.660;2022-10-16T10:28:18;12.98;;;10.70;;
58643;SDS011;44411;49.994;8.660;2022-10-16T10:31:03;16.30;;;12.50;;
58643;SDS011;44411;49.994;8.660;2022-10-16T10:46:28;13.07;;;11.90;;
58643;SDS011;44411;49.994;8.660;2022-10-16T10:49:05;11.07;;;9.98;;
58643;SDS011;44411;49.994;8.660;2022-10-16T10:52:10;11.00;;;9.55;;
58643;SDS011;44411;49.994;8.660;2022-10-16T11:00:17;12.75;;;10.98;;
58643;SDS011;44411;49.994;8.660;2022-10-16T11:11:17;9.23;;;8.10;;
58643;SDS011;44411;49.994;8.660;2022-10-16T11:16:26;8.02;;;6.03;;
58643;SDS011;44411;49.994;8.660;2022-10-16T11:22:05;6.68;;;5.63;;
58643;SDS011;44411;49.994;8.660;2022-10-16T11:27:39;8.68;;;5.72;;
58643;SDS011;44411;49.994;8.660;2022-10-16T11:30:19;6.20;;;5.25;;
58643;SDS011;44411;49.994;8.660;2022-10-16T11:35:37;5.00;;;4.30;;
58643;SDS011;44411;49.994;8.660;2022-10-16T11:38:20;5.60;;;3.35;;
58643;SDS011;44411;49.994;8.660;2022-10-16T11:47:19;6.07;;;4.20;;
58643;SDS011;44411;49.994;8.660;2022-10-16T11:49:53;6.93;;;4.30;;
58643;SDS011;44411;49.994;8.660;2022-10-16T11:52:33;7.65;;;3.83;;
58643;SDS011;44411;49.994;8.660;2022-10-16T11:55:05;6.13;;;3.38;;
58643;SDS011;44411;49.994;8.660;2022-10-16T11:57:43;5.63;;;3.38;;
58643;SDS011;44411;49.994;8.660;2022-10-16T12:00:27;4.25;;;3.25;;
58643;SDS011;44411;49.994;8.660;2022-10-16T12:03:10;5.28;;;3.55;;
58643;SDS011;44411;49.994;8.660;2022-10-16T12:05:52;4.22;;;2.70;;
58643;SDS011;44411;49.994;8.660;2022-10-16T12:08:29;4.40;;;2.40;;
58643;SDS011;44411;49.994;8.660;2022-10-16T12:11:05;4.10;;;2.40;;
58643;SDS011;44411;49.994;8.660;2022-10-16T12:13:45;3.78;;;2.63;;
58643;SDS011;44411;49.994;8.660;2022-10-16T12:18:42;5.37;;;2.80;;
58643;SDS011;44411;49.994;8.660;2022-10-16T12:21:09;4.07;;;2.50;;
58643;SDS011;44411;49.994;8.660;2022-10-16T12:23:45;4.77;;;2.40;;
58643;SDS011;44411;49.994;8.660;2022-10-16T12:26:13;3.15;;;2.10;;
58643;SDS011;44411;49.994;8.660;2022-10-16T12:28:38;5.65;;;2.05;;
58643;SDS011;44411;49.994;8.660;2022-10-16T12:31:06;7.35;;;2.55;;
58643;SDS011;44411;49.994;8.660;2022-10-16T12:36:13;3.95;;;2.10;;
58643;SDS011;44411;49.994;8.660;2022-10-16T12:41:23;3.67;;;2.08;;
58643;SDS011;44411;49.994;8.660;2022-10-16T12:43:51;5.82;;;2.17;;
58643;SDS011;44411;49.994;8.660;2022-10-16T12:48:42;2.93;;;2.20;;
58643;SDS011;44411;49.994;8.660;2022-10-16T12:54:12;4.25;;;2.15;;
58643;SDS011;44411;49.994;8.660;2022-10-16T13:05:02;5.60;;;2.40;;
58643;SDS011;44411;49.994;8.660;2022-10-16T13:12:50;5.10;;;2.55;;
58643;SDS011;44411;49.994;8.660;2022-10-16T13:15:52;5.18;;;2.50;;
58643;SDS011;44411;49.994;8.660;2022-10-16T13:18:38;3.90;;;2.47;;
58643;SDS011;44411;49.994;8.660;2022-10-16T13:29:31;4.80;;;2.72;;
58643;SDS011;44411;49.994;8.660;2022-10-16T13:31:58;5.95;;;3.92;;
58643;SDS011;44411;49.994;8.660;2022-10-16T13:34:25;4.18;;;2.38;;
58643;SDS011;44411;49.994;8.660;2022-10-16T13:36:52;6.15;;;2.40;;
58643;SDS011;44411;49.994;8.660;2022-10-16T13:39:23;5.50;;;2.50;;
58643;SDS011;44411;49.994;8.660;2022-10-16T13:44:44;4.93;;;2.88;;
58643;SDS011;44411;49.994;8.660;2022-10-16T13:49:45;4.18;;;2.83;;
58643;SDS011;44411;49.994;8.660;2022-10-16T13:52:15;4.95;;;2.90;;
58643;SDS011;44411;49.994;8.660;2022-10-16T13:54:42;4.13;;;2.70;;
58643;SDS011;44411;49.994;8.660;2022-10-16T13:57:08;4.45;;;2.88;;
58643;SDS011;44411;49.994;8.660;2022-10-16T13:59:34;5.82;;;2.67;;
58643;SDS011;44411;49.994;8.660;2022-10-16T14:02:00;4.30;;;2.15;;
58643;SDS011;44411;49.994;8.660;2022-10-16T14:04:39;5.13;;;2.45;;
58643;SDS011;44411;49.994;8.660;2022-10-16T14:07:05;3.85;;;2.60;;
58643;SDS011;44411;49.994;8.660;2022-10-16T14:09:30;5.55;;;2.90;;
58643;SDS011;44411;49.994;8.660;2022-10-16T14:12:00;6.32;;;3.13;;
58643;SDS011;44411;49.994;8.660;2022-10-16T14:14:30;4.57;;;2.72;;
58643;SDS011;44411;49.994;8.660;2022-10-16T14:17:06;5.40;;;3.30;;
58643;SDS011;44411;49.994;8.660;2022-10-16T14:19:38;5.50;;;3.47;;
58643;SDS011;44411;49.994;8.660;2022-10-16T14:22:04;4.35;;;2.90;;
58643;SDS011;44411;49.994;8.660;2022-10-16T14:24:45;6.38;;;3.42;;
58643;SDS011;44411;49.994;8.660;2022-10-16T14:27:33;4.22;;;3.10;;
58643;SDS011;44411;49.994;8.660;2022-10-16T14:30:20;7.93;;;3.47;;
58643;SDS011;44411;49.994;8.660;2022-10-16T14:32:54;5.10;;;3.70;;
58643;SDS011;44411;49.994;8.660;2022-10-16T14:35:31;7.25;;;3.80;;
58643;SDS011;44411;49.994;8.660;2022-10-16T14:38:01;6.93;;;4.10;;
58643;SDS011;44411;49.994;8.660;2022-10-16T14:40:30;6.40;;;3.38;;
58643;SDS011;44411;49.994;8.660;2022-10-16T14:42:58;5.18;;;3.70;;
58643;SDS011;44411;49.994;8.660;2022-10-16T14:45:26;7.07;;;3.38;;
58643;SDS011;44411;49.994;8.660;2022-10-16T14:47:55;11.30;;;3.92;;
58643;SDS011;44411;49.994;8.660;2022-10-16T14:50:22;7.45;;;3.75;;
58643;SDS011;44411;49.994;8.660;2022-10-16T14:52:48;7.95;;;3.60;;
58643;SDS011;44411;49.994;8.660;2022-10-16T14:55:14;5.07;;;3.17;;
58643;SDS011;44411;49.994;8.660;2022-10-16T14:57:40;5.68;;;3.55;;
58643;SDS011;44411;49.994;8.660;2022-10-16T15:00:13;8.15;;;5.35;;
58643;SDS011;44411;49.994;8.660;2022-10-16T15:02:42;8.63;;;4.60;;
58643;SDS011;44411;49.994;8.660;2022-10-16T15:05:13;8.13;;;4.15;;
58643;SDS011;44411;49.994;8.660;2022-10-16T15:07:44;9.65;;;4.53;;
58643;SDS011;44411;49.994;8.660;2022-10-16T15:10:11;8.50;;;3.90;;
58643;SDS011;44411;49.994;8.660;2022-10-16T15:12:38;6.97;;;3.80;;
58643;SDS011;44411;49.994;8.660;2022-10-16T15:18:01;5.47;;;3.83;;
58643;SDS011;44411;49.994;8.660;2022-10-16T15:20:28;7.68;;;4.57;;
58643;SDS011;44411;49.994;8.660;2022-10-16T15:23:03;8.07;;;4.05;;
58643;SDS011;44411;49.994;8.660;2022-10-16T15:28:00;7.80;;;3.88;;
58643;SDS011;44411;49.994;8.660;2022-10-16T15:30:27;7.00;;;3.90;;
58643;SDS011;44411;49.994;8.660;2022-10-16T15:32:53;10.27;;;4.78;;
58643;SDS011;44411;49.994;8.660;2022-10-16T15:35:18;7.13;;;4.50;;
58643;SDS011;44411;49.994;8.660;2022-10-16T15:37:45;7.35;;;4.45;;
58643;SDS011;44411;49.994;8.660;2022-10-16T15:40:14;9.98;;;4.75;;
58643;SDS011;44411;49.994;8.660;2022-10-16T15:42:40;9.57;;;4.60;;
58643;SDS011;44411;49.994;8.660;2022-10-16T15:45:06;7.90;;;6.28;;
58643;SDS011;44411;49.994;8.660;2022-10-16T15:47:32;8.80;;;5.28;;
58643;SDS011;44411;49.994;8.660;2022-10-16T15:49:57;7.93;;;5.28;;
58643;SDS011;44411;49.994;8.660;2022-10-16T15:52:23;6.65;;;4.15;;
58643;SDS011;44411;49.994;8.660;2022-10-16T15:54:48;6.70;;;4.53;;
58643;SDS011;44411;49.994;8.660;2022-10-16T15:57:14;7.00;;;4.82;;
58643;SDS011;44411;49.994;8.660;2022-10-16T15:59:39;7.90;;;4.68;;
58643;SDS011;44411;49.994;8.660;2022-10-16T16:02:05;7.97;;;4.30;;
58643;SDS011;44411;49.994;8.660;2022-10-16T16:04:30;7.75;;;4.50;;
58643;SDS011;44411;49.994;8.660;2022-10-16T16:06:56;6.38;;;4.30;;
58643;SDS011;44411;49.994;8.660;2022-10-16T16:09:21;12.15;;;5.03;;
58643;SDS011;44411;49.994;8.660;2022-10-16T16:11:47;11.50;;;4.80;;
58643;SDS011;44411;49.994;8.660;2022-10-16T16:14:12;5.35;;;4.63;;
58643;SDS011;44411;49.994;8.660;2022-10-16T16:16:39;8.50;;;4.28;;
58643;SDS011;44411;49.994;8.660;2022-10-16T16:19:04;8.50;;;4.40;;
58643;SDS011;44411;49.994;8.660;2022-10-16T16:21:34;7.78;;;5.07;;
58643;SDS011;44411;49.994;8.660;2022-10-16T16:23:59;7.65;;;5.38;;
58643;SDS011;44411;49.994;8.660;2022-10-16T16:26:28;11.88;;;8.77;;
58643;SDS011;44411;49.994;8.660;2022-10-16T16:28:58;14.10;;;11.23;;
58643;SDS011;44411;49.994;8.660;2022-10-16T16:31:25;15.77;;;9.73;;
58643;SDS011;44411;49.994;8.660;2022-10-16T16:33:52;10.95;;;9.65;;
58643;SDS011;44411;49.994;8.660;2022-10-16T16:36:17;13.13;;;9.23;;
58643;SDS011;44411;49.994;8.660;2022-10-16T16:38:43;16.10;;;11.40;;
58643;SDS011;44411;49.994;8.660;2022-10-16T16:41:14;12.93;;;9.02;;
58643;SDS011;44411;49.994;8.660;2022-10-16T16:43:41;11.98;;;9.05;;
58643;SDS011;44411;49.994;8.660;2022-10-16T16:46:07;9.77;;;7.97;;
58643;SDS011;44411;49.994;8.660;2022-10-16T16:48:32;12.95;;;8.27;;
58643;SDS011;44411;49.994;8.660;2022-10-16T16:51:05;10.13;;;8.15;;
58643;SDS011;44411;49.994;8.660;2022-10-16T16:53:33;14.77;;;8.23;;
58643;SDS011;44411;49.994;8.660;2022-10-16T16:56:00;12.57;;;7.40;;
58643;SDS011;44411;49.994;8.660;2022-10-16T16:58:29;12.52;;;10.15;;
58643;SDS011;44411;49.994;8.660;2022-10-16T17:00:55;12.77;;;6.93;;
58643;SDS011;44411;49.994;8.660;2022-10-16T17:03:21;9.40;;;6.40;;
58643;SDS011;44411;49.994;8.660;2022-10-16T17:08:25;10.52;;;8.10;;
58643;SDS011;44411;49.994;8.660;2022-10-16T17:10:50;9.57;;;7.70;;
58643;SDS011;44411;49.994;8.660;2022-10-16T17:13:19;12.57;;;10.67;;
58643;SDS011;44411;49.994;8.660;2022-10-16T17:15:48;11.63;;;10.27;;
58643;SDS011;44411;49.994;8.660;2022-10-16T17:18:14;10.48;;;7.55;;
58643;SDS011;44411;49.994;8.660;2022-10-16T17:20:40;10.98;;;7.47;;
58643;SDS011;44411;49.994;8.660;2022-10-16T17:23:06;11.77;;;7.00;;
58643;SDS011;44411;49.994;8.660;2022-10-16T17:25:35;9.25;;;6.13;;
58643;SDS011;44411;49.994;8.660;2022-10-16T17:28:01;7.93;;;6.32;;
58643;SDS011;44411;49.994;8.660;2022-10-16T17:30:26;9.68;;;6.30;;
58643;SDS011;44411;49.994;8.660;2022-10-16T17:32:55;10.60;;;6.30;;
58643;SDS011;44411;49.994;8.660;2022-10-16T17:35:20;8.73;;;5.68;;
58643;SDS011;44411;49.994;8.660;2022-10-16T17:37:46;8.57;;;6.95;;
58643;SDS011;44411;49.994;8.660;2022-10-16T17:40:11;12.05;;;7.18;;
58643;SDS011;44411;49.994;8.660;2022-10-16T17:42:37;13.95;;;6.63;;
58643;SDS011;44411;49.994;8.660;2022-10-16T17:45:02;10.75;;;6.22;;
58643;SDS011;44411;49.994;8.660;2022-10-16T17:47:28;14.25;;;7.20;;
58643;SDS011;44411;49.994;8.660;2022-10-16T17:49:53;10.75;;;6.65;;
58643;SDS011;44411;49.994;8.660;2022-10-16T17:52:19;8.88;;;6.85;;
58643;SDS011;44411;49.994;8.660;2022-10-16T17:54:44;9.07;;;6.85;;
58643;SDS011;44411;49.994;8.660;2022-10-16T17:57:10;11.35;;;6.85;;
58643;SDS011;44411;49.994;8.660;2022-10-16T17:59:35;8.95;;;7.15;;
58643;SDS011;44411;49.994;8.660;2022-10-16T18:02:01;10.63;;;7.10;;
58643;SDS011;44411;49.994;8.660;2022-10-16T18:04:26;13.50;;;7.80;;
58643;SDS011;44411;49.994;8.660;2022-10-16T18:06:51;10.68;;;7.85;;
58643;SDS011;44411;49.994;8.660;2022-10-16T18:09:17;10.57;;;6.80;;
58643;SDS011;44411;49.994;8.660;2022-10-16T18:11:44;13.65;;;8.73;;
58643;SDS011;44411;49.994;8.660;2022-10-16T18:14:14;11.07;;;7.97;;
58643;SDS011;44411;49.994;8.660;2022-10-16T18:16:42;10.30;;;7.78;;
58643;SDS011;44411;49.994;8.660;2022-10-16T18:19:11;10.15;;;9.02;;
58643;SDS011;44411;49.994;8.660;2022-10-16T18:21:37;9.63;;;8.70;;
58643;SDS011;44411;49.994;8.660;2022-10-16T18:24:02;10.52;;;7.55;;
58643;SDS011;44411;49.994;8.660;2022-10-16T18:26:28;11.90;;;7.90;;
58643;SDS011;44411;49.994;8.660;2022-10-16T18:28:54;11.82;;;9.00;;
58643;SDS011;44411;49.994;8.660;2022-10-16T18:31:21;12.00;;;9.48;;